createdAt,value
2022-11-06T00:00:42.656Z,7.60
2022-11-06T00:03:11.838Z,7.60
2022-11-06T00:05:59.615Z,7.70
2022-11-06T00:08:31.765Z,7.70
2022-11-06T00:11:00.570Z,7.60
2022-11-06T00:13:30.670Z,7.60
2022-11-06T00:16:04.621Z,7.60
2022-11-06T00:18:33.467Z,7.50
2022-11-06T00:21:07.966Z,7.40
2022-11-06T00:23:38.244Z,7.30
2022-11-06T00:26:08.459Z,7.20
2022-11-06T00:28:37.057Z,7.20
2022-11-06T00:31:06.152Z,7.30
2022-11-06T00:33:34.784Z,7.40
2022-11-06T00:36:04.635Z,7.20
2022-11-06T00:38:33.370Z,6.90
2022-11-06T00:41:06.487Z,6.60
2022-11-06T00:43:35.824Z,6.40
2022-11-06T00:46:04.818Z,6.20
2022-11-06T00:48:33.087Z,6.10
2022-11-06T00:51:04.134Z,6.10
2022-11-06T00:53:32.403Z,6.10
2022-11-06T00:56:07.356Z,6.10
2022-11-06T00:58:35.894Z,6.10
2022-11-06T01:01:09.289Z,6.10
2022-11-06T01:03:38.172Z,6.20
2022-11-06T01:06:08.980Z,6.20
2022-11-06T01:08:37.455Z,6.00
2022-11-06T01:11:12.681Z,5.90
2022-11-06T01:13:41.762Z,5.90
2022-11-06T01:16:13.741Z,6.00
2022-11-06T01:18:43.248Z,6.10
2022-11-06T01:21:15.636Z,6.00
2022-11-06T01:23:44.738Z,6.00
2022-11-06T01:26:24.647Z,5.90
2022-11-06T01:29:04.784Z,5.90
2022-11-06T01:31:35.795Z,5.80
2022-11-06T01:34:05.648Z,5.70
2022-11-06T01:36:35.054Z,5.70
2022-11-06T01:39:07.156Z,5.50
2022-11-06T01:41:40.186Z,5.30
2022-11-06T01:44:46.860Z,5.20
2022-11-06T01:47:24.056Z,5.10
2022-11-06T01:49:55.999Z,5.10
2022-11-06T01:52:26.799Z,5.10
2022-11-06T01:54:59.453Z,5.20
2022-11-06T01:57:29.480Z,5.30
2022-11-06T01:59:57.792Z,5.40
2022-11-06T02:02:26.484Z,5.50
2022-11-06T02:04:54.903Z,5.70
2022-11-06T02:07:24.063Z,5.80
2022-11-06T02:09:52.466Z,5.90
2022-11-06T02:12:44.715Z,5.90
2022-11-06T02:15:41.891Z,6.00
2022-11-06T02:18:33.015Z,6.10
2022-11-06T02:21:44.784Z,6.00
2022-11-06T02:24:40.915Z,6.00
2022-11-06T02:27:13.224Z,6.10
2022-11-06T02:29:50.799Z,6.20
2022-11-06T02:32:23.864Z,6.30
2022-11-06T02:34:54.792Z,6.10
2022-11-06T02:37:28.587Z,5.90
2022-11-06T02:40:00.015Z,5.90
2022-11-06T02:42:32.050Z,6.10
2022-11-06T02:45:03.470Z,6.20
2022-11-06T02:47:34.758Z,6.30
2022-11-06T02:50:08.547Z,6.50
2022-11-06T02:52:41.292Z,6.60
2022-11-06T02:55:13.691Z,6.70
2022-11-06T02:57:47.267Z,6.60
2022-11-06T03:00:18.059Z,6.80
2022-11-06T03:02:51.705Z,6.70
2022-11-06T03:05:24.638Z,6.50
2022-11-06T03:07:58.308Z,6.30
2022-11-06T03:10:32.667Z,6.20
2022-11-06T03:13:12.658Z,6.30
2022-11-06T03:15:46.215Z,6.40
2022-11-06T03:18:18.642Z,6.50
2022-11-06T03:20:58.154Z,6.40
2022-11-06T03:23:34.965Z,6.20
2022-11-06T03:26:11.744Z,6.00
2022-11-06T03:28:49.279Z,6.10
2022-11-06T03:31:20.780Z,6.10
2022-11-06T03:33:54.348Z,6.10
2022-11-06T03:36:26.164Z,6.10
2022-11-06T03:39:01.083Z,6.20
2022-11-06T03:41:36.695Z,6.20
2022-11-06T03:44:10.224Z,6.20
2022-11-06T03:46:42.412Z,6.30
2022-11-06T03:49:15.978Z,6.30
2022-11-06T03:51:52.431Z,6.30
2022-11-06T03:54:25.747Z,6.50
2022-11-06T03:56:58.056Z,6.50
2022-11-06T03:59:33.285Z,6.60
2022-11-06T04:02:03.044Z,6.60
2022-11-06T04:04:38.398Z,6.60
2022-11-06T04:07:09.488Z,6.70
2022-11-06T04:09:59.974Z,6.70
2022-11-06T04:12:49.594Z,6.80
2022-11-06T04:15:21.571Z,6.90
2022-11-06T04:17:49.863Z,6.90
2022-11-06T04:20:40.713Z,7.00
2022-11-06T04:23:14.784Z,7.00
2022-11-06T04:26:16.094Z,7.00
2022-11-06T04:28:51.907Z,7.00
2022-11-06T04:31:28.894Z,7.10
2022-11-06T04:34:05.818Z,7.10
2022-11-06T04:36:43.679Z,7.10
2022-11-06T04:39:18.293Z,7.10
2022-11-06T04:41:58.180Z,7.20
2022-11-06T04:44:30.786Z,7.20
2022-11-06T04:47:04.586Z,7.10
2022-11-06T04:49:36.407Z,7.10
2022-11-06T04:52:11.161Z,7.00
2022-11-06T04:54:39.771Z,6.80
2022-11-06T04:57:09.063Z,6.60
2022-11-06T04:59:37.909Z,6.50
2022-11-06T05:02:08.714Z,6.30
2022-11-06T05:04:36.961Z,6.10
2022-11-06T05:07:05.539Z,5.80
2022-11-06T05:09:34.340Z,5.60
2022-11-06T05:12:02.660Z,5.30
2022-11-06T05:14:32.952Z,5.20
2022-11-06T05:17:01.228Z,5.10
2022-11-06T05:19:31.584Z,4.90
2022-11-06T05:22:17.526Z,4.60
2022-11-06T05:24:46.312Z,4.60
2022-11-06T05:27:14.660Z,4.90
2022-11-06T05:29:42.941Z,5.10
2022-11-06T05:32:11.662Z,5.30
2022-11-06T05:34:42.268Z,5.50
2022-11-06T05:37:10.987Z,5.60
2022-11-06T05:39:42.012Z,5.70
2022-11-06T05:42:11.335Z,5.80
2022-11-06T05:44:39.589Z,5.80
2022-11-06T05:47:08.507Z,5.80
2022-11-06T05:49:36.694Z,5.90
2022-11-06T05:52:06.674Z,5.90
2022-11-06T05:54:35.526Z,5.90
2022-11-06T05:57:03.819Z,6.00
2022-11-06T05:59:34.519Z,6.00
2022-11-06T06:02:02.939Z,6.10
2022-11-06T06:04:31.863Z,6.10
2022-11-06T06:07:00.609Z,6.10
2022-11-06T06:09:31.310Z,6.10
2022-11-06T06:11:59.581Z,6.10
2022-11-06T06:14:28.503Z,6.10
2022-11-06T06:16:56.838Z,6.10
2022-11-06T06:19:25.246Z,6.10
2022-11-06T06:21:55.095Z,6.10
2022-11-06T06:24:23.484Z,6.10
2022-11-06T06:26:53.383Z,6.10
2022-11-06T06:29:21.668Z,6.10
2022-11-06T06:31:51.290Z,6.10
2022-11-06T06:34:19.754Z,6.10
2022-11-06T06:36:51.909Z,6.10
2022-11-06T06:39:20.978Z,6.10
2022-11-06T06:41:50.343Z,6.10
2022-11-06T06:44:20.720Z,6.10
2022-11-06T06:46:48.968Z,6.20
2022-11-06T06:49:17.566Z,6.10
2022-11-06T06:51:45.877Z,6.10
2022-11-06T06:54:14.643Z,6.10
2022-11-06T06:56:42.911Z,6.10
2022-11-06T06:59:11.682Z,6.20
2022-11-06T07:01:41.435Z,6.10
2022-11-06T07:04:11.376Z,6.10
2022-11-06T07:06:39.689Z,6.00
2022-11-06T07:09:08.712Z,6.00
2022-11-06T07:11:37.012Z,6.00
2022-11-06T07:14:05.827Z,5.90
2022-11-06T07:16:34.315Z,6.00
2022-11-06T07:19:04.172Z,6.00
2022-11-06T07:21:33.060Z,6.00
2022-11-06T07:24:01.352Z,6.10
2022-11-06T07:26:29.875Z,6.20
2022-11-06T07:28:58.097Z,6.20
2022-11-06T07:31:26.868Z,6.30
2022-11-06T07:33:55.179Z,6.40
2022-11-06T07:36:25.288Z,6.50
2022-11-06T07:38:53.491Z,6.50
2022-11-06T07:41:22.229Z,6.60
2022-11-06T07:43:50.976Z,6.60
2022-11-06T07:46:19.535Z,6.70
2022-11-06T07:48:48.711Z,6.80
2022-11-06T07:51:16.920Z,6.80
2022-11-06T07:53:46.930Z,6.80
2022-11-06T07:56:15.424Z,6.80
2022-11-06T07:58:44.066Z,6.80
2022-11-06T08:01:18.464Z,6.80
2022-11-06T08:03:47.846Z,6.90
2022-11-06T08:06:16.176Z,6.90
2022-11-06T08:08:46.071Z,6.90
2022-11-06T08:11:15.693Z,6.90
2022-11-06T08:13:44.172Z,6.90
2022-11-06T08:16:15.125Z,6.90
2022-11-06T08:18:43.669Z,6.90
2022-11-06T08:21:12.477Z,6.80
2022-11-06T08:23:40.707Z,6.80
2022-11-06T08:26:12.187Z,6.80
2022-11-06T08:28:41.030Z,6.70
2022-11-06T08:31:10.432Z,6.80
2022-11-06T08:33:39.747Z,6.80
2022-11-06T08:36:09.191Z,6.90
2022-11-06T08:38:38.139Z,6.90
2022-11-06T08:41:07.579Z,7.00
2022-11-06T08:43:38.913Z,7.10
2022-11-06T08:46:08.811Z,7.20
2022-11-06T08:48:38.068Z,7.20
2022-11-06T08:51:07.150Z,7.30
2022-11-06T08:53:36.361Z,7.40
2022-11-06T08:56:05.567Z,7.50
2022-11-06T08:58:34.083Z,7.60
2022-11-06T09:01:04.357Z,7.60
2022-11-06T09:03:32.755Z,7.70
2022-11-06T09:06:01.609Z,7.80
2022-11-06T09:08:30.025Z,7.80
2022-11-06T09:10:59.262Z,7.90
2022-11-06T09:13:27.760Z,8.00
2022-11-06T09:15:56.676Z,8.10
2022-11-06T09:18:26.292Z,8.10
2022-11-06T09:20:56.500Z,8.20
2022-11-06T09:23:25.506Z,8.30
2022-11-06T09:25:54.088Z,8.40
2022-11-06T09:28:22.911Z,8.50
2022-11-06T09:30:51.370Z,8.50
2022-11-06T09:33:20.656Z,8.60
2022-11-06T09:35:50.613Z,8.70
2022-11-06T09:38:20.430Z,8.70
2022-11-06T09:40:53.195Z,8.80
2022-11-06T09:44:03.689Z,8.80
2022-11-06T09:46:27.619Z,8.80
2022-11-06T09:48:58.209Z,8.80
2022-11-06T09:51:37.305Z,9.00
2022-11-06T09:54:16.514Z,9.10
2022-11-06T09:56:46.521Z,9.30
2022-11-06T09:59:22.721Z,9.50
2022-11-06T10:01:56.203Z,9.70
2022-11-06T10:04:42.194Z,10.00
2022-11-06T10:07:24.477Z,10.30
2022-11-06T10:09:55.444Z,10.40
2022-11-06T10:12:34.275Z,10.20
2022-11-06T10:15:17.687Z,10.10
2022-11-06T10:17:55.171Z,10.40
2022-11-06T10:20:31.779Z,11.10
2022-11-06T10:23:13.969Z,12.10
2022-11-06T10:25:47.824Z,13.10
2022-11-06T10:28:31.617Z,14.10
2022-11-06T10:31:09.002Z,14.90
2022-11-06T10:33:51.308Z,15.50
2022-11-06T10:36:23.925Z,15.60
2022-11-06T10:38:54.964Z,15.50
2022-11-06T10:41:27.982Z,15.40
2022-11-06T10:44:00.597Z,15.70
2022-11-06T10:46:35.270Z,16.20
2022-11-06T10:49:12.399Z,16.80
2022-11-06T10:52:01.114Z,17.20
2022-11-06T10:54:42.715Z,17.20
2022-11-06T10:57:27.212Z,17.40
2022-11-06T10:59:56.156Z,18.00
2022-11-06T11:02:29.582Z,18.50
2022-11-06T11:04:58.636Z,18.70
2022-11-06T11:07:30.869Z,18.60
2022-11-06T11:10:02.410Z,18.60
2022-11-06T11:12:33.184Z,18.70
2022-11-06T11:15:16.716Z,19.00
2022-11-06T11:18:09.725Z,18.70
2022-11-06T11:20:39.275Z,18.40
2022-11-06T11:23:16.050Z,17.90
2022-11-06T11:25:48.161Z,17.60
2022-11-06T11:28:26.658Z,17.30
2022-11-06T11:30:58.908Z,16.90
2022-11-06T11:33:28.247Z,17.40
2022-11-06T11:35:56.662Z,17.80
2022-11-06T11:38:26.509Z,18.00
2022-11-06T11:41:07.959Z,18.50
2022-11-06T11:43:36.488Z,18.80
2022-11-06T11:46:21.976Z,18.90
2022-11-06T11:48:52.590Z,19.00
2022-11-06T11:51:35.156Z,19.20
2022-11-06T11:54:07.564Z,18.60
2022-11-06T11:57:04.246Z,18.00
2022-11-06T11:59:38.882Z,17.40
2022-11-06T12:02:20.933Z,16.60
2022-11-06T12:04:55.902Z,16.30
2022-11-06T12:07:31.848Z,15.90
2022-11-06T12:10:03.022Z,15.30
2022-11-06T12:12:34.991Z,15.50
2022-11-06T12:15:19.611Z,15.10
2022-11-06T12:17:53.223Z,15.10
2022-11-06T12:20:27.389Z,15.40
2022-11-06T12:22:59.328Z,15.70
2022-11-06T12:25:34.589Z,15.60
2022-11-06T12:28:07.298Z,15.70
2022-11-06T12:30:37.451Z,16.00
2022-11-06T12:33:12.839Z,16.40
2022-11-06T12:35:45.390Z,16.70
2022-11-06T12:38:20.676Z,17.10
2022-11-06T12:40:52.692Z,17.40
2022-11-06T12:43:30.985Z,17.30
2022-11-06T12:46:21.524Z,16.60
2022-11-06T12:49:28.961Z,15.70
2022-11-06T12:52:09.383Z,15.50
2022-11-06T12:54:49.928Z,16.00
2022-11-06T12:57:28.272Z,16.20
2022-11-06T13:00:07.297Z,16.60
2022-11-06T13:02:47.189Z,16.60
2022-11-06T13:05:20.998Z,16.90
2022-11-06T13:08:16.558Z,16.90
2022-11-06T13:11:00.543Z,16.90
2022-11-06T13:13:37.577Z,17.30
2022-11-06T13:16:16.641Z,17.20
2022-11-06T13:18:53.403Z,16.80
2022-11-06T13:21:40.692Z,16.60
2022-11-06T13:24:16.927Z,16.30
2022-11-06T13:26:52.027Z,16.50
2022-11-06T13:29:22.817Z,16.30
2022-11-06T13:31:54.992Z,16.10
2022-11-06T13:34:29.099Z,16.00
2022-11-06T13:36:57.806Z,15.70
2022-11-06T13:39:32.763Z,15.30
2022-11-06T13:42:02.476Z,15.10
2022-11-06T13:44:32.471Z,14.80
2022-11-06T13:47:09.346Z,14.90
2022-11-06T13:49:54.361Z,15.10
2022-11-06T13:52:30.913Z,15.40
2022-11-06T13:55:08.979Z,15.50
2022-11-06T13:58:05.700Z,15.60
2022-11-06T14:00:47.391Z,15.80
2022-11-06T14:03:44.555Z,15.60
2022-11-06T14:06:19.979Z,15.20
2022-11-06T14:08:52.592Z,15.10
2022-11-06T14:11:26.685Z,14.80
2022-11-06T14:14:01.042Z,14.40
2022-11-06T14:16:33.038Z,13.90
2022-11-06T14:19:08.175Z,13.70
2022-11-06T14:21:49.160Z,13.80
2022-11-06T14:24:18.700Z,13.90
2022-11-06T14:26:49.398Z,14.00
2022-11-06T14:30:04.776Z,13.80
2022-11-06T14:32:48.448Z,13.80
2022-11-06T14:35:54.519Z,13.80
2022-11-06T14:38:39.887Z,13.70
2022-11-06T14:41:54.478Z,13.60
2022-11-06T14:44:35.271Z,13.50
2022-11-06T14:47:04.645Z,13.40
2022-11-06T14:49:36.670Z,13.20
2022-11-06T14:52:10.468Z,13.20
2022-11-06T14:54:42.735Z,12.90
2022-11-06T14:57:16.006Z,12.80
2022-11-06T14:59:44.832Z,12.50
2022-11-06T15:02:20.825Z,12.50
2022-11-06T15:04:53.739Z,12.30
2022-11-06T15:08:03.416Z,12.00
2022-11-06T15:10:51.735Z,11.80
2022-11-06T15:13:38.190Z,11.70
2022-11-06T15:16:16.348Z,11.70
2022-11-06T15:18:46.651Z,11.70
2022-11-06T15:21:23.700Z,11.70
2022-11-06T15:24:04.321Z,11.60
2022-11-06T15:26:39.116Z,11.40
2022-11-06T15:29:18.880Z,11.40
2022-11-06T15:31:50.193Z,11.30
2022-11-06T15:34:24.129Z,11.30
2022-11-06T15:36:58.148Z,11.20
2022-11-06T15:39:40.417Z,11.00
2022-11-06T15:42:10.231Z,10.90
2022-11-06T15:44:41.918Z,10.80
2022-11-06T15:47:22.409Z,10.70
2022-11-06T15:50:07.876Z,10.80
2022-11-06T15:52:36.568Z,10.80
2022-11-06T15:55:07.243Z,10.90
2022-11-06T15:57:35.992Z,10.90
2022-11-06T16:00:17.871Z,10.90
2022-11-06T16:02:52.244Z,10.90
2022-11-06T16:05:23.068Z,10.90
2022-11-06T16:07:52.576Z,11.00
2022-11-06T16:10:23.742Z,11.00
2022-11-06T16:12:54.404Z,11.00
2022-11-06T16:15:41.214Z,11.10
2022-11-06T16:18:16.621Z,11.10
2022-11-06T16:20:46.660Z,11.10
2022-11-06T16:23:17.770Z,11.00
2022-11-06T16:25:47.799Z,11.00
2022-11-06T16:28:19.219Z,11.00
2022-11-06T16:30:48.891Z,11.00
2022-11-06T16:33:23.550Z,11.00
2022-11-06T16:35:55.442Z,11.00
2022-11-06T16:38:41.539Z,11.00
2022-11-06T16:41:34.216Z,11.00
2022-11-06T16:44:27.819Z,11.00
2022-11-06T16:47:16.612Z,10.90
2022-11-06T16:49:52.868Z,10.80
2022-11-06T16:52:30.408Z,10.80
2022-11-06T16:55:02.455Z,10.80
2022-11-06T16:57:36.503Z,10.80
2022-11-06T17:00:08.853Z,10.80
2022-11-06T17:02:39.029Z,10.80
2022-11-06T17:05:14.187Z,10.80
2022-11-06T17:07:43.219Z,10.80
2022-11-06T17:10:37.547Z,10.80
2022-11-06T17:13:15.138Z,10.70
2022-11-06T17:15:45.579Z,10.80
2022-11-06T17:18:18.100Z,10.80
2022-11-06T17:20:51.247Z,10.70
2022-11-06T17:23:19.860Z,10.80
2022-11-06T17:25:49.846Z,10.70
2022-11-06T17:28:19.586Z,10.60
2022-11-06T17:30:48.765Z,10.70
2022-11-06T17:33:17.279Z,10.70
2022-11-06T17:35:48.166Z,10.70
2022-11-06T17:38:17.181Z,10.70
2022-11-06T17:40:47.794Z,10.80
2022-11-06T17:43:16.799Z,10.80
2022-11-06T17:45:50.143Z,10.80
2022-11-06T17:48:18.858Z,10.80
2022-11-06T17:51:05.307Z,10.80
2022-11-06T17:53:33.603Z,10.60
2022-11-06T17:56:05.765Z,10.60
2022-11-06T17:58:34.864Z,10.50
2022-11-06T18:01:09.819Z,10.50
2022-11-06T18:03:43.473Z,10.30
2022-11-06T18:06:12.668Z,10.20
2022-11-06T18:08:40.924Z,10.10
2022-11-06T18:11:10.601Z,10.00
2022-11-06T18:13:39.444Z,9.90
2022-11-06T18:16:17.260Z,9.80
2022-11-06T18:18:46.046Z,9.80
2022-11-06T18:21:14.325Z,9.60
2022-11-06T18:23:43.475Z,9.40
2022-11-06T18:26:11.753Z,9.20
2022-11-06T18:28:40.414Z,9.00
2022-11-06T18:31:08.827Z,8.90
2022-11-06T18:33:38.865Z,8.70
2022-11-06T18:36:12.531Z,8.70
2022-11-06T18:38:42.493Z,8.80
2022-11-06T18:41:13.435Z,8.80
2022-11-06T18:43:42.704Z,8.90
2022-11-06T18:46:13.058Z,8.70
2022-11-06T18:48:43.965Z,8.50
2022-11-06T18:51:14.569Z,8.30
2022-11-06T18:53:44.696Z,8.20
2022-11-06T18:56:14.468Z,8.00
2022-11-06T18:58:44.355Z,7.90
2022-11-06T19:01:14.542Z,7.80
2022-11-06T19:03:44.544Z,7.70
2022-11-06T19:06:15.170Z,7.60
2022-11-06T19:08:45.530Z,7.60
2022-11-06T19:11:15.779Z,7.60
2022-11-06T19:13:48.048Z,7.70
2022-11-06T19:16:19.605Z,7.70
2022-11-06T19:21:31.206Z,7.70
2022-11-06T19:24:04.144Z,7.70
2022-11-06T19:26:34.508Z,7.60
2022-11-06T19:29:02.816Z,7.60
2022-11-06T19:31:33.289Z,7.70
2022-11-06T19:34:03.984Z,7.70
2022-11-06T19:36:36.721Z,7.70
2022-11-06T19:39:07.210Z,7.80
2022-11-06T19:41:36.153Z,7.70
2022-11-06T19:44:05.876Z,7.70
2022-11-06T19:46:36.356Z,7.70
2022-11-06T19:52:41.365Z,7.80
2022-11-06T19:54:52.665Z,7.90
2022-11-06T19:57:41.196Z,8.00
2022-11-06T20:00:11.523Z,8.00
2022-11-06T20:02:41.302Z,8.00
2022-11-06T20:05:12.236Z,8.00
2022-11-06T20:07:42.462Z,8.10
2022-11-06T20:10:12.284Z,8.20
2022-11-06T20:12:41.143Z,8.30
2022-11-06T20:15:10.583Z,8.40
2022-11-06T20:17:43.551Z,8.40
2022-11-06T20:20:14.432Z,8.50
2022-11-06T20:22:43.829Z,8.50
2022-11-06T20:25:13.322Z,8.50
2022-11-06T20:27:41.674Z,8.60
2022-11-06T20:30:11.442Z,8.60
2022-11-06T20:32:39.751Z,8.60
2022-11-06T20:35:10.023Z,8.70
2022-11-06T20:37:39.637Z,8.70
2022-11-06T20:40:09.844Z,8.80
2022-11-06T20:42:38.055Z,8.80
2022-11-06T20:45:07.979Z,8.80
2022-11-06T20:47:36.677Z,8.90
2022-11-06T20:50:06.091Z,8.90
2022-11-06T20:52:35.038Z,9.00
2022-11-06T20:55:05.257Z,8.90
2022-11-06T20:57:34.021Z,8.90
2022-11-06T21:00:02.534Z,8.90
2022-11-06T21:02:33.016Z,8.90
2022-11-06T21:05:01.323Z,9.00
2022-11-06T21:07:31.236Z,9.10
2022-11-06T21:10:00.030Z,9.20
2022-11-06T21:12:30.167Z,9.20
2022-11-06T21:14:58.846Z,9.10
2022-11-06T21:17:27.529Z,9.20
2022-11-06T21:19:56.487Z,9.10
2022-11-06T21:22:24.665Z,9.10
2022-11-06T21:24:53.323Z,9.10
2022-11-06T21:27:21.535Z,9.10
2022-11-06T21:29:51.552Z,9.10
2022-11-06T21:32:19.801Z,9.10
2022-11-06T21:34:48.043Z,9.10
2022-11-06T21:37:16.666Z,9.10
2022-11-06T21:39:44.968Z,9.10
2022-11-06T21:42:13.525Z,9.20
2022-11-06T21:44:42.127Z,9.30
2022-11-06T21:47:11.858Z,9.30
2022-11-06T21:49:40.026Z,9.40
2022-11-06T21:52:29.227Z,9.40
2022-11-06T21:55:15.646Z,9.50
2022-11-06T21:57:44.349Z,9.50
2022-11-06T22:00:14.539Z,9.60
2022-11-06T22:02:45.795Z,9.60
2022-11-06T22:05:13.923Z,9.70
2022-11-06T22:07:42.585Z,9.70
2022-11-06T22:10:11.240Z,9.80
2022-11-06T22:12:40.524Z,9.90
2022-11-06T22:15:10.793Z,9.90
2022-11-06T22:17:39.597Z,10.00
2022-11-06T22:20:10.980Z,10.00
2022-11-06T22:22:39.194Z,10.10
2022-11-06T22:25:08.472Z,10.10
2022-11-06T22:27:40.679Z,10.10
2022-11-06T22:30:11.091Z,10.20
2022-11-06T22:32:39.450Z,10.20
2022-11-06T22:35:11.245Z,10.30
2022-11-06T22:37:40.280Z,10.30
2022-11-06T22:40:10.826Z,10.30
2022-11-06T22:42:45.904Z,10.30
2022-11-06T22:45:18.457Z,10.30
2022-11-06T22:47:47.525Z,10.40
2022-11-06T22:50:17.151Z,10.40
2022-11-06T22:52:45.884Z,10.40
2022-11-06T22:55:14.121Z,10.40
2022-11-06T22:57:42.794Z,10.30
2022-11-06T23:00:15.673Z,10.30
2022-11-06T23:02:45.324Z,10.40
2022-11-06T23:05:13.551Z,10.40
2022-11-06T23:07:43.691Z,10.40
2022-11-06T23:10:11.944Z,10.40
2022-11-06T23:12:40.976Z,10.40
2022-11-06T23:15:11.286Z,10.40
2022-11-06T23:17:39.715Z,10.50
2022-11-06T23:20:09.479Z,10.50
2022-11-06T23:22:37.917Z,10.50
2022-11-06T23:25:09.309Z,10.50
2022-11-06T23:27:38.316Z,10.50
2022-11-06T23:30:08.397Z,10.50
2022-11-06T23:32:38.608Z,10.50
2022-11-06T23:35:13.323Z,10.50
2022-11-06T23:37:43.359Z,10.50
2022-11-06T23:40:13.883Z,10.50
2022-11-06T23:42:43.321Z,10.60
2022-11-06T23:45:39.019Z,10.60
2022-11-06T23:48:12.608Z,10.60
2022-11-06T23:50:41.451Z,10.50
2022-11-06T23:53:09.663Z,10.60
2022-11-06T23:55:39.899Z,10.50
2022-11-06T23:58:08.134Z,10.50
